Latest Weather Observations for Moorabbin Airport

IDV60901

Issued at 7:31 pm EDT Saturday 10 December 2022 (issued every 10 minutes, with the page automatically refreshed every 10 minutes)

About weather observations | Map of Melbourne area stations | Latest observations for Melbourne area | Other Formats
Station Details ID: 086077 Name: MOORABBIN AIRPORT Lat: -37.98 Lon: 145.10 Height: 12.1 m
Data from the previous 72 hours. | See also: Recent months at Moorabbin Airport
Date/Time
EDT
Temp
°C
App
Temp
°C
Dew
Point
°C
Rel
Hum
%
Delta-T
°C
Wind Press
QNH
hPa
Press
MSL
hPa
Rain since
9am
mm
Dir  Spd
km/h
Gust
km/h
Spd
kts
Gust
kts
10/07:30pm 22.1 18.6 10.9 49 6.2 SE 20 30 11 16 1010.4 1010.4 0.0
10/07:00pm 23.2 20.1 10.3 44 7.1 SSE 17 24 9 13 1010.5 1010.5 0.0
10/06:30pm 23.1 19.9 9.8 43 7.2 SSW 17 20 9 11 1010.6 1010.6 0.0
10/06:00pm 24.0 20.7 8.0 36 8.5 SW 15 19 8 10 1010.4 1010.4 0.0
10/05:30pm 24.4 21.3 8.8 37 8.4 SSW 15 17 8 9 1010.2 1010.2 0.0
10/05:00pm 24.0 20.4 8.4 37 8.3 SSW 17 20 9 11 1010.6 1010.6 0.0
10/04:30pm 23.6 20.0 8.5 38 8.0 SSW 17 20 9 11 1011.0 1011.0 0.0
10/04:00pm 23.9 20.6 9.5 40 7.8 SSW 17 20 9 11 1011.4 1011.4 0.0
10/03:30pm 23.3 20.3 9.3 41 7.6 SSW 15 20 8 11 1011.8 1011.8 0.0
10/03:00pm 23.1 20.0 8.8 40 7.6 SSW 15 19 8 10 1012.2 1012.2 0.0
10/02:30pm 22.1 18.6 8.9 43 7.0 SSW 17 20 9 11 1013.0 1013.0 0.0
10/02:00pm 20.8 17.3 8.8 46 6.3 SW 17 24 9 13 1013.6 1013.6 0.0
10/01:30pm 20.9 17.4 10.1 50 5.8 SSW 19 22 10 12 1013.8 1013.8 0.0
10/01:00pm 20.8 17.5 9.7 49 5.9 SSW 17 24 9 13 1014.0 1014.0 0.0
10/12:30pm 21.5 19.7 9.4 46 6.5 W 9 15 5 8 1014.6 1014.6 0.0
10/12:00pm 20.7 18.6 9.9 50 5.8 NNW 11 22 6 12 1015.1 1015.1 0.0
10/11:30am 19.6 15.1 7.0 44 6.4 N 20 26 11 14 1015.4 1015.4 0.0
10/11:00am 18.9 16.1 7.0 46 6.0 NNW 11 17 6 9 1015.7 1015.7 0.0
10/10:30am 17.0 13.8 6.8 51 5.0 N 13 20 7 11 1015.9 1015.9 0.0
10/10:00am 16.1 12.8 6.5 53 4.7 N 13 20 7 11 1016.2 1016.2 0.0
10/09:30am 14.8 11.6 6.9 59 3.9 N 13 19 7 10 1016.7 1016.7 0.0
10/09:00am 13.6 10.5 7.4 66 3.0 N 13 22 7 12 1017.0 1017.0 0.0
10/08:30am 12.5 9.9 7.8 73 2.3 NNE 11 15 6 8 1016.7 1016.7 0.0
10/08:00am 11.0 9.0 6.9 76 1.9 NNE 7 13 4 7 1016.6 1016.6 0.0
10/07:30am 10.6 8.7 6.9 78 1.8 ENE 6 9 3 5 1016.6 1016.6 0.0
10/07:00am 9.6 7.0 6.1 79 1.6 ENE 9 13 5 7 1016.3 1016.3 0.0
10/06:30am 8.5 4.7 6.0 84 1.1 E 15 20 8 11 1015.9 1015.9 0.0
10/06:00am 7.2 4.7 5.0 86 1.0 E 7 9 4 5 1016.0 1016.0 0.0
10/05:30am 7.6 4.4 5.1 84 1.1 SE 11 15 6 8 1015.9 1015.9 0.0
10/05:00am 8.3 4.4 5.4 82 1.3 SE 15 19 8 10 1015.5 1015.5 0.0
10/04:30am 8.4 5.2 5.2 80 1.4 SSE 11 15 6 8 1015.9 1015.9 0.0
10/04:00am 8.9 5.4 5.6 80 1.5 SSE 13 17 7 9 1016.0 1016.0 0.0
10/03:30am 9.3 5.9 5.9 79 1.6 SE 13 19 7 10 1016.2 1016.2 0.0
10/03:00am 9.1 5.8 6.2 82 1.3 SE 13 17 7 9 1016.2 1016.2 0.0
10/02:30am 9.0 6.0 6.1 82 1.3 SE 11 13 6 7 1016.4 1016.4 0.0
10/02:00am 10.1 6.6 7.0 81 1.5 SE 15 20 8 11 1016.6 1016.6 0.0
10/01:30am 10.0 6.4 6.9 81 1.5 SE 15 19 8 10 1017.0 1017.0 0.0
10/01:00am 9.5 6.2 6.6 82 1.3 ESE 13 17 7 9 1017.3 1017.3 0.0
10/12:30am 9.9 6.6 6.4 79 1.6 ESE 13 17 7 9 1017.5 1017.5 0.0
10/12:00am 10.8 7.2 6.6 75 2.0 SE 15 20 8 11 1017.5 1017.5 0.0
 
Date/Time
EDT
Temp
°C
App
Temp
°C
Dew
Point
°C
Rel
Hum
%
Delta-T
°C
Wind Press
QNH
hPa
Press
MSL
hPa
Rain since
9am
mm
Dir  Spd
km/h
Gust
km/h
Spd
kts
Gust
kts
09/11:30pm 11.2 7.2 6.5 73 2.2 SE 17 22 9 12 1017.6 1017.6 0.0
09/11:00pm 11.5 7.0 6.8 73 2.2 SE 20 24 11 13 1017.8 1017.8 0.0
09/10:30pm 11.8 7.9 7.3 74 2.2 SE 17 24 9 13 1017.9 1017.9 0.0
09/10:00pm 11.9 9.0 6.6 70 2.5 SE 11 17 6 9 1017.9 1017.9 0.0
09/09:30pm 12.3 8.9 5.9 65 3.0 S 13 17 7 9 1017.9 1017.9 0.0
09/09:00pm 12.9 9.9 5.8 62 3.3 S 11 15 6 8 1017.9 1017.9 0.0
09/08:30pm 13.7 9.9 5.8 59 3.7 S 15 22 8 12 1017.6 1017.6 0.0
09/08:00pm 14.6 10.1 5.9 56 4.1 SSE 19 24 10 13 1017.2 1017.2 0.0
09/07:30pm 15.1 10.0 6.1 55 4.3 SE 22 30 12 16 1016.7 1016.7 0.0
09/07:00pm 15.7 10.7 6.4 54 4.5 SE 22 30 12 16 1016.6 1016.6 0.0
09/06:30pm 16.6 11.3 7.0 53 4.8 SE 24 30 13 16 1016.4 1016.4 0.0
09/06:00pm 16.5 11.1 6.3 51 5.0 SE 24 32 13 17 1016.3 1016.3 0.0
09/05:30pm 16.7 11.6 6.2 50 5.1 SSE 22 30 12 16 1016.6 1016.6 0.0
09/05:00pm 16.6 11.9 6.1 50 5.1 SSE 20 32 11 17 1016.8 1016.8 0.0
09/04:30pm 17.3 12.4 6.8 50 5.2 SSE 22 30 12 16 1016.8 1016.8 0.0
09/04:00pm 18.7 14.5 8.4 51 5.3 SE 20 35 11 19 1016.6 1016.6 0.0
09/03:30pm 17.7 13.1 6.6 48 5.5 SSE 20 39 11 21 1016.8 1016.8 0.0
09/03:00pm 17.3 12.4 7.1 51 5.1 SW 22 32 12 17 1017.0 1017.0 0.0
09/02:30pm 17.2 11.9 7.0 51 5.1 SW 24 32 13 17 1017.4 1017.4 0.0
09/02:00pm 16.2 10.7 5.8 50 5.0 SW 24 33 13 18 1017.7 1017.7 0.0
09/01:30pm 16.3 10.9 4.7 46 5.5 SW 22 33 12 18 1017.7 1017.7 0.0
09/01:00pm 16.3 10.9 4.7 46 5.5 SSW 22 32 12 17 1017.8 1017.8 0.0
09/12:30pm 15.8 10.8 4.5 47 5.3 SW 20 30 11 16 1017.9 1017.9 0.0
09/12:00pm 15.0 10.5 4.4 49 4.9 SSW 17 26 9 14 1018.2 1018.2 0.0
09/11:30am 15.5 10.9 5.4 51 4.8 SSW 19 28 10 15 1018.2 1018.2 0.0
09/11:00am 14.8 9.7 4.2 49 4.9 SSW 20 30 11 16 1018.2 1018.2 0.0
09/10:30am 14.4 9.4 3.8 49 4.8 S 19 28 10 15 1018.1 1018.1 0.0
09/10:00am 13.9 8.8 4.2 52 4.4 S 20 26 11 14 1018.3 1018.3 0.0
09/09:30am 13.4 8.2 2.6 48 4.8 S 19 26 10 14 1018.2 1018.2 0.0
09/09:00am 14.5 9.5 3.6 48 4.9 S 19 30 10 16 1018.1 1018.1 2.0
09/08:30am 13.9 9.4 4.2 52 4.4 S 17 24 9 13 1018.0 1018.0 2.0
09/08:00am 13.4 8.5 4.0 53 4.3 S 19 28 10 15 1017.7 1017.7 2.0
09/07:30am 12.0 7.1 4.2 59 3.5 SSE 19 24 10 13 1017.3 1017.3 2.0
09/07:00am 12.0 7.2 4.7 61 3.3 SSE 19 24 10 13 1017.0 1017.0 2.0
09/06:30am 11.7 8.2 5.6 66 2.8 SSE 13 22 7 12 1016.9 1016.9 2.0
09/06:00am 11.3 8.6 5.6 68 2.6 S 9 15 5 8 1016.7 1016.7 2.0
09/05:30am 11.6 6.8 4.6 62 3.2 SSE 19 26 10 14 1016.1 1016.1 2.0
09/05:00am 11.3 6.9 4.5 63 3.1 SSE 17 24 9 13 1015.9 1015.9 2.0
09/04:30am 11.7 7.2 4.4 61 3.3 SSE 17 24 9 13 1015.9 1015.9 2.0
09/04:00am 11.7 7.2 4.4 61 3.3 S 17 26 9 14 1016.5 1016.5 2.0
09/03:30am 11.5 6.4 4.3 61 3.2 S 20 30 11 16 1016.6 1016.6 2.0
09/03:00am 11.9 7.0 3.9 58 3.6 S 19 24 10 13 1016.8 1016.8 2.0
09/02:30am 12.1 7.0 4.3 59 3.5 S 20 33 11 18 1017.0 1017.0 2.0
09/02:00am 11.8 6.5 2.8 54 3.9 SSW 20 30 11 16 1017.2 1017.2 2.0
09/01:30am 11.9 7.4 4.2 59 3.5 SSW 17 26 9 14 1017.3 1017.3 2.0
09/01:00am 11.7 6.7 4.4 61 3.3 S 20 30 11 16 1017.6 1017.6 2.0
09/12:30am 11.8 7.3 4.3 60 3.4 S 17 26 9 14 1017.3 1017.3 2.0
09/12:00am 12.1 7.7 4.8 61 3.3 S 17 28 9 15 1017.2 1017.2 2.0
 
Date/Time
EDT
Temp
°C
App
Temp
°C
Dew
Point
°C
Rel
Hum
%
Delta-T
°C
Wind Press
QNH
hPa
Press
MSL
hPa
Rain since
9am
mm
Dir  Spd
km/h
Gust
km/h
Spd
kts
Gust
kts
08/11:30pm 12.3 7.4 5.2 62 3.3 S 20 32 11 17 1017.4 1017.4 2.0
08/11:00pm 12.2 7.4 5.4 63 3.1 SSW 20 30 11 16 1017.5 1017.5 2.0
08/10:30pm 12.6 6.6 3.6 54 4.0 SSW 24 33 13 18 1017.3 1017.3 2.0
08/10:00pm 12.8 7.3 4.0 55 4.0 SSW 22 32 12 17 1017.1 1017.1 2.0
08/09:30pm 12.8 7.2 5.5 61 3.4 SSW 24 35 13 19 1016.7 1016.7 2.0
08/09:00pm 12.7 6.5 4.2 56 3.8 SSW 26 35 14 19 1016.6 1016.6 2.0
08/08:30pm 12.9 5.8 3.6 53 4.2 SSW 30 37 16 20 1016.7 1016.7 2.0
08/08:00pm 13.4 7.1 3.8 52 4.3 SSW 26 39 14 21 1016.7 1016.7 2.0
08/07:30pm 13.3 6.7 4.2 54 4.1 SSW 28 41 15 22 1016.4 1016.4 2.0
08/07:00pm 13.5 7.4 4.6 55 4.1 SSW 26 35 14 19 1016.0 1016.0 2.0
08/06:30pm 13.8 7.3 4.9 55 4.1 SSW 28 43 15 23 1015.6 1015.6 2.0
08/06:00pm 14.0 7.6 5.1 55 4.2 SSW 28 39 15 21 1015.3 1015.3 2.0
08/05:30pm 14.6 8.0 4.0 49 4.9 SSW 28 44 15 24 1015.4 1015.4 2.0
08/05:26pm 15.1 8.7 5.0 51 4.7 SSW 28 46 15 25 1015.4 1015.4 2.0
08/05:00pm 14.6 7.3 4.6 51 4.6 SSW 32 46 17 25 1015.3 1015.3 2.0
08/04:33pm 15.9 9.8 6.6 54 4.5 SSW 28 46 15 25 1015.2 1015.2 2.0
08/04:30pm 15.6 9.1 6.6 55 4.4 SSW 30 46 16 25 1015.2 1015.2 2.0
08/04:00pm 15.2 8.9 5.7 53 4.5 SW 28 39 15 21 1015.3 1015.3 2.0
08/03:30pm 15.1 8.3 5.0 51 4.7 SW 30 46 16 25 1015.4 1015.4 2.0
08/03:00pm 15.0 7.6 5.2 52 4.6 SW 33 48 18 26 1015.3 1015.3 2.0
08/02:41pm 14.9 8.7 6.2 56 4.2 SSW 28 46 15 25 1015.3 1015.3 2.0
08/02:30pm 14.6 7.5 5.7 55 4.2 SSW 32 44 17 24 1015.3 1015.3 2.0
08/02:00pm 15.6 8.7 6.6 55 4.4 SW 32 48 17 26 1015.1 1015.1 2.0
08/01:37pm 14.8 8.3 4.8 51 4.7 SSW 28 46 15 25 1015.1 1015.1 2.0
08/01:30pm 14.7 8.7 5.5 54 4.4 SW 26 39 14 21 1015.1 1015.1 2.0
08/01:00pm 14.0 7.3 3.8 50 4.6 SW 28 43 15 23 1015.2 1015.2 2.0
08/12:42pm 13.5 6.8 5.7 59 3.7 SSW 30 50 16 27 1015.1 1015.1 2.0
08/12:30pm 13.0 7.6 7.9 71 2.5 SW 26 41 14 22 1014.9 1014.9 2.0
08/12:25pm 11.5 5.0 6.4 71 2.4 SW 30 48 16 26 1015.0 1015.0 2.0
08/12:00pm 14.4 7.3 5.5 55 4.2 SW 32 44 17 24 1014.6 1014.6 2.0
08/11:30am 11.7 4.8 7.2 74 2.2 SSW 33 54 18 29 1014.7 1014.7 2.0
08/11:22am 12.0 5.9 6.7 70 2.5 SW 28 46 15 25 1014.7 1014.7 2.0
08/11:00am 14.0 7.7 5.6 57 4.0 SSW 28 37 15 20 1014.4 1014.4 1.6
08/10:30am 13.3 7.5 4.5 55 4.0 SSW 24 35 13 19 1014.2 1014.2 1.6
08/10:08am 12.9 6.1 5.3 60 3.5 SSW 30 57 16 31 1013.9 1013.9 1.6
08/10:00am 12.8 6.3 4.5 57 3.8 SSW 28 43 15 23 1013.8 1013.8 1.6
08/09:43am 11.9 6.0 7.4 74 2.2 SSW 28 41 15 22 1013.7 1013.7 1.6
08/09:30am 9.9 3.6 7.5 85 1.1 SW 30 44 16 24 1013.7 1013.7 1.4
08/09:25am 9.8 3.7 6.7 81 1.5 SW 28 44 15 24 1013.7 1013.7 1.0
08/09:03am 10.2 4.1 6.4 77 1.8 WSW 28 46 15 25 1013.6 1013.6 0.0
08/09:00am 10.6 4.9 6.9 78 1.8 WSW 26 39 14 21 1013.3 1013.3 5.0
08/08:30am 12.4 7.0 6.5 67 2.8 WSW 24 37 13 20 1012.5 1012.5 4.6
08/08:00am 12.2 6.6 5.4 63 3.2 SW 24 37 13 20 1012.1 1012.1 4.6
08/07:30am 11.8 5.4 5.0 63 3.1 SW 28 41 15 22 1011.8 1011.8 4.6
08/07:00am 9.8 4.4 6.5 80 1.5 SSW 24 39 13 21 1011.4 1011.4 4.6
08/06:30am 9.5 4.2 6.6 82 1.4 WSW 24 39 13 21 1011.1 1011.1 4.4
08/06:00am 9.5 4.9 6.6 82 1.4 WSW 20 43 11 23 1010.7 1010.7 3.8
08/05:55am 9.4 4.1 6.7 83 1.3 WSW 24 43 13 23 1010.7 1010.7 3.8
08/05:42am 9.5 3.3 6.2 80 1.5 SW 28 46 15 25 1010.6 1010.6 3.6
08/05:36am 8.8 2.8 5.2 78 1.6 WSW 26 48 14 26 1010.7 1010.7 3.4
08/05:30am 10.5 6.1 6.5 76 1.9 W 19 32 10 17 1010.3 1010.3 2.4
08/05:00am 10.8 5.7 6.0 72 2.2 WSW 22 33 12 18 1010.2 1010.2 2.4
08/04:30am 10.6 4.7 5.6 71 2.3 WSW 26 41 14 22 1010.3 1010.3 2.4
08/04:00am 10.3 4.8 5.7 73 2.1 WSW 24 39 13 21 1010.2 1010.2 2.4
08/03:30am 11.3 5.7 5.2 66 2.8 WSW 24 39 13 21 1009.9 1009.9 2.4
08/03:00am 11.1 5.5 5.2 67 2.7 WSW 24 37 13 20 1009.8 1009.8 2.4
08/02:30am 10.8 4.9 6.0 72 2.2 SW 26 37 14 20 1010.0 1010.0 2.4
08/02:10am 11.0 4.8 6.2 72 2.2 WSW 28 48 15 26 1010.2 1010.2 2.2
08/02:00am 11.2 6.3 5.3 67 2.7 WSW 20 33 11 18 1009.9 1009.9 2.2
08/01:32am 10.7 4.1 4.4 65 2.8 WSW 28 46 15 25 1010.2 1010.2 2.2
08/01:30am 11.1 4.3 5.0 66 2.8 WSW 30 46 16 25 1010.3 1010.3 2.2
08/01:25am 12.0 5.7 5.6 65 3.0 WSW 28 46 15 25 1010.0 1010.0 2.2
08/01:00am 11.8 6.2 5.2 64 3.0 WSW 24 39 13 21 1010.2 1010.2 2.2
08/12:30am 11.7 4.9 5.1 64 3.0 W 30 44 16 24 1010.3 1010.3 2.2
08/12:11am 12.1 5.7 5.3 63 3.1 WSW 28 48 15 26 1010.3 1010.3 2.2
08/12:00am 12.0 6.4 5.4 64 3.1 WSW 24 41 13 22 1010.2 1010.2 2.2
 
Date/Time
EDT
Temp
°C
App
Temp
°C
Dew
Point
°C
Rel
Hum
%
Delta-T
°C
Wind Press
QNH
hPa
Press
MSL
hPa
Rain since
9am
mm
Dir  Spd
km/h
Gust
km/h
Spd
kts
Gust
kts
07/11:30pm 12.1 6.1 5.3 63 3.1 WSW 26 41 14 22 1010.1 1010.1 2.2
07/11:00pm 11.9 4.7 5.8 66 2.9 WSW 33 57 18 31 1009.9 1009.9 2.2
07/10:42pm 13.1 6.1 5.8 61 3.4 WSW 32 61 17 33 1009.6 1009.6 2.2
07/10:30pm 12.9 5.8 5.6 61 3.4 WSW 32 46 17 25 1009.4 1009.4 2.2
07/10:04pm 13.2 6.9 7.2 67 2.9 SW 30 57 16 31 1008.9 1008.9 2.2
07/10:00pm 13.0 6.4 7.7 70 2.6 SW 32 46 17 25 1008.8 1008.8 2.2
07/09:30pm 13.3 7.4 9.2 76 2.1 SW 30 48 16 26 1008.2 1008.2 2.2
07/09:01pm 12.4 5.3 9.4 82 1.5 SW 37 57 20 31 1007.8 1007.8 2.2
07/09:00pm 12.5 5.8 9.5 82 1.5 SW 35 52 19 28 1007.7 1007.7 2.0
07/08:30pm 12.7 5.6 9.7 82 1.5 SW 37 59 20 32 1007.1 1007.1 1.6
07/08:26pm 12.7 5.3 9.9 83 1.4 SW 39 59 21 32 1007.1 1007.1 1.4
07/08:22pm 12.8 5.8 10.0 83 1.4 SW 37 56 20 30 1007.0 1007.0 1.4
07/08:15pm 14.1 9.0 10.5 79 1.9 WSW 28 46 15 25 1006.6 1006.6 1.0
07/08:00pm 13.6 9.0 11.0 84 1.4 W 26 41 14 22 1006.3 1006.3 1.0
07/07:57pm 13.6 9.4 11.1 85 1.3 W 24 41 13 22 1006.3 1006.3 0.8
07/07:47pm 13.6 7.6 10.8 83 1.5 W 33 52 18 28 1006.0 1006.0 0.6
07/07:46pm 13.6 7.2 10.8 83 1.5 W 35 52 19 28 1006.0 1006.0 0.6
07/07:38pm 14.9 9.6 9.9 72 2.6 WSW 28 50 15 27 1005.8 1005.8 0.2

Latest Capital City Observations: Canberra | Sydney | Melbourne | Brisbane | Adelaide | Perth | Hobart | Darwin

Other formats

Comma delimited format used in spreadsheet applications
http://www.bom.gov.au/fwo/IDV60901/IDV60901.94870.axf

JavaScript Object Notation format (JSON) in row-major order
http://www.bom.gov.au/fwo/IDV60901/IDV60901.94870.json

Data quality

Most of these data are generated automatically and are frequently updated. Quality checks on data are not normally performed. It is possible for incorrect values to appear. Refer to information at About Latest Weather Observations and please check the disclaimer before using these data.